Time;durP1;ratioP1;P1;durP2;ratioP2;P2;SDS_P1;SDS_P2;PMS_P1;PMS_P2;Temp;Humidity;BMP_temperature;BMP_pressure;BME280_temperature;BME280_humidity;BME280_pressure;Samples;Min_cycle;Max_cycle;Signal;HPM_P1;HPM_P2
2022/02/13 00:01:20;;;;;;;5.77;2.87;;;22.10;53.30;;;;;;5972120;24;20967;-85
2022/02/13 00:03:46;;;;;;;3.80;2.20;;;22.10;53.30;;;;;;5995227;23;20402;-85
2022/02/13 00:06:27;;;;;;;3.77;2.30;;;22.10;53.40;;;;;;5995732;23;20481;-85
2022/02/13 00:08:54;;;;;;;4.87;2.60;;;22.10;53.30;;;;;;5995392;23;20160;-85
2022/02/13 00:11:27;;;;;;;4.20;2.50;;;22.10;53.30;;;;;;5995128;23;20446;-85
2022/02/13 00:13:53;;;;;;;4.80;2.80;;;22.10;53.30;;;;;;5971648;24;20385;-85
2022/02/13 00:16:19;;;;;;;3.73;2.90;;;22.10;53.30;;;;;;5996015;23;20392;-85
2022/02/13 00:18:45;;;;;;;3.70;2.13;;;22.10;53.30;;;;;;6008915;23;20242;-85
2022/02/13 00:21:11;;;;;;;5.63;2.60;;;22.10;53.30;;;;;;6086844;23;20157;-85
2022/02/13 00:23:37;;;;;;;5.37;3.10;;;22.10;53.40;;;;;;6199522;23;20394;-85
2022/02/13 00:26:03;;;;;;;5.80;2.87;;;22.10;53.50;;;;;;6199471;23;20422;-85
2022/02/13 00:28:32;;;;;;;4.10;2.50;;;22.10;53.40;;;;;;6199718;23;20446;-85
2022/02/13 00:30:57;;;;;;;4.53;3.37;;;22.10;53.40;;;;;;6199131;23;20387;-85
2022/02/13 00:33:26;;;;;;;3.60;2.67;;;22.10;53.40;;;;;;6198875;23;20421;-85
2022/02/13 00:35:52;;;;;;;6.17;3.50;;;22.10;53.40;;;;;;6200268;23;20379;-85
2022/02/13 00:38:22;;;;;;;5.00;2.90;;;22.10;53.40;;;;;;6200405;23;20442;-85
2022/02/13 00:40:52;;;;;;;7.50;2.93;;;22.10;53.40;;;;;;6199399;23;20391;-85
2022/02/13 00:43:20;;;;;;;3.77;2.70;;;22.10;53.40;;;;;;6198581;23;20447;-85
2022/02/13 00:45:49;;;;;;;4.60;2.87;;;22.10;53.50;;;;;;6199065;23;20441;-85
2022/02/13 00:48:15;;;;;;;3.03;2.67;;;22.10;53.50;;;;;;6198490;23;20392;-85
2022/02/13 00:54:07;;;;;;;6.27;3.47;;;22.10;53.40;;;;;;6199678;23;20209;-85
2022/02/13 00:59:58;;;;;;;7.47;3.70;;;22.10;53.50;;;;;;6199849;23;20405;-85
2022/02/13 01:05:49;;;;;;;6.43;2.93;;;22.10;53.50;;;;;;6202508;23;20422;-85
2022/02/13 01:08:14;;;;;;;5.03;3.47;;;22.10;53.70;;;;;;6201257;23;20379;-85
2022/02/13 01:10:40;;;;;;;7.27;3.37;;;22.10;53.60;;;;;;6200920;23;20387;-85
2022/02/13 01:13:06;;;;;;;5.80;3.20;;;22.10;54.10;;;;;;6200354;23;20235;-85
2022/02/13 01:15:35;;;;;;;6.10;3.40;;;22.10;53.60;;;;;;6199968;23;20399;-85
2022/02/13 01:18:01;;;;;;;5.83;3.40;;;22.10;53.50;;;;;;6199876;23;20391;-85
2022/02/13 01:20:27;;;;;;;5.90;3.83;;;22.10;53.50;;;;;;6199977;23;20382;-85
2022/02/13 01:22:53;;;;;;;4.93;3.53;;;22.10;53.50;;;;;;6199680;23;20387;-85
2022/02/13 01:25:24;;;;;;;4.50;3.93;;;22.10;53.50;;;;;;6199729;23;20410;-85
2022/02/13 01:27:50;;;;;;;8.53;3.93;;;22.10;53.50;;;;;;6200174;23;20195;-85
2022/02/13 01:33:38;;;;;;;6.13;3.20;;;22.10;53.50;;;;;;6202097;23;20187;-85
2022/02/13 01:36:04;;;;;;;6.70;3.70;;;22.10;53.80;;;;;;6200455;23;20379;-84
2022/02/13 01:38:36;;;;;;;7.90;3.67;;;22.10;53.80;;;;;;6201374;23;20375;-83
2022/02/13 01:41:07;;;;;;;7.47;3.67;;;22.10;53.80;;;;;;6182185;23;20390;-83
2022/02/13 01:43:43;;;;;;;5.47;3.80;;;22.10;53.80;;;;;;6207410;23;20387;-83
2022/02/13 01:46:13;;;;;;;7.97;3.83;;;22.10;53.80;;;;;;6206963;23;20417;-83
2022/02/13 01:48:43;;;;;;;5.73;4.00;;;22.10;53.80;;;;;;6183935;23;20388;-83
2022/02/13 01:51:31;;;;;;;7.50;3.70;;;22.10;53.80;;;;;;6209188;23;20360;-83
2022/02/13 01:54:27;;;;;;;5.40;3.50;;;22.10;53.80;;;;;;6208117;23;20846;-83
2022/02/13 01:56:59;;;;;;;4.53;3.00;;;22.10;53.80;;;;;;6208285;23;20363;-82
2022/02/13 01:59:27;;;;;;;5.90;3.83;;;22.10;53.90;;;;;;6206743;23;20380;-83
2022/02/13 02:01:59;;;;;;;8.67;4.57;;;22.10;53.90;;;;;;6183364;23;20410;-83
2022/02/13 02:04:32;;;;;;;6.70;3.10;;;22.10;53.90;;;;;;6208298;23;20411;-83
2022/02/13 02:07:21;;;;;;;7.20;4.07;;;22.10;53.90;;;;;;6207542;23;20711;-82
2022/02/13 02:09:54;;;;;;;7.90;3.50;;;22.10;53.80;;;;;;6186261;23;20379;-82
2022/02/13 02:12:22;;;;;;;6.70;3.30;;;22.10;53.80;;;;;;6206646;23;20375;-83
2022/02/13 02:14:48;;;;;;;6.70;3.13;;;22.10;53.80;;;;;;6206184;23;20401;-83
2022/02/13 02:17:15;;;;;;;5.63;3.30;;;22.10;53.80;;;;;;6206865;23;20379;-84
2022/02/13 02:19:41;;;;;;;5.60;3.67;;;22.10;53.80;;;;;;6206967;23;20407;-83
2022/02/13 02:22:09;;;;;;;7.20;3.90;;;22.10;53.80;;;;;;6206896;23;20390;-84
2022/02/13 02:24:41;;;;;;;4.47;2.93;;;22.10;53.70;;;;;;6208376;23;20422;-84
2022/02/13 02:27:07;;;;;;;5.40;3.67;;;22.10;53.70;;;;;;6207374;23;20414;-84
2022/02/13 02:29:36;;;;;;;6.97;3.60;;;22.10;53.70;;;;;;6206673;23;20387;-84
2022/02/13 02:32:05;;;;;;;5.10;3.43;;;22.10;53.70;;;;;;6207593;23;20450;-84
2022/02/13 02:34:33;;;;;;;8.33;3.70;;;22.10;53.80;;;;;;6207721;23;20920;-84
2022/02/13 02:37:04;;;;;;;7.17;3.23;;;22.10;53.80;;;;;;6206570;23;20398;-84
2022/02/13 02:39:30;;;;;;;6.40;4.10;;;22.10;53.80;;;;;;6208138;23;20364;-84
2022/02/13 02:41:56;;;;;;;7.70;4.60;;;22.10;53.80;;;;;;6207033;23;20438;-84
2022/02/13 02:44:26;;;;;;;6.10;2.97;;;22.10;53.80;;;;;;6207248;23;20391;-84
2022/02/13 02:46:55;;;;;;;5.87;2.97;;;22.10;53.80;;;;;;6206482;23;20387;-84
2022/02/13 02:49:26;;;;;;;6.60;3.33;;;22.10;53.80;;;;;;6206833;23;20519;-84
2022/02/13 02:51:55;;;;;;;7.73;3.37;;;22.10;53.70;;;;;;6206356;23;20391;-84
2022/02/13 02:54:24;;;;;;;6.47;3.00;;;22.10;53.70;;;;;;6182540;23;20391;-84
2022/02/13 02:56:53;;;;;;;7.43;3.33;;;22.10;53.80;;;;;;6208036;23;20371;-84
2022/02/13 02:59:25;;;;;;;5.50;3.20;;;22.10;53.70;;;;;;6206526;23;20415;-84
2022/02/13 03:01:57;;;;;;;5.47;3.07;;;22.10;53.80;;;;;;6208084;23;20370;-83
2022/02/13 03:04:28;;;;;;;7.03;3.67;;;22.10;53.80;;;;;;6204354;23;20383;-83
2022/02/13 03:06:55;;;;;;;5.13;3.10;;;22.10;53.90;;;;;;6207728;23;20363;-84
2022/02/13 03:09:23;;;;;;;4.30;3.40;;;22.10;53.80;;;;;;6205631;23;20391;-84
2022/02/13 03:12:03;;;;;;;3.40;2.50;;;22.10;53.90;;;;;;6207096;23;20467;-84
2022/02/13 03:14:39;;;;;;;5.10;2.80;;;22.10;54.00;;;;;;6206805;23;20359;-84
2022/02/13 03:17:06;;;;;;;4.07;3.20;;;22.10;53.80;;;;;;6207439;23;20351;-83
2022/02/13 03:19:34;;;;;;;6.20;3.30;;;22.10;53.80;;;;;;6208070;23;20367;-83
2022/02/13 03:22:01;;;;;;;5.33;2.83;;;22.00;53.70;;;;;;6206071;23;20379;-84
2022/02/13 03:24:29;;;;;;;5.80;3.33;;;22.10;53.80;;;;;;6206625;23;20379;-84
2022/02/13 03:27:01;;;;;;;4.67;3.40;;;22.00;53.70;;;;;;6206421;23;20387;-84
2022/02/13 03:29:28;;;;;;;4.03;2.70;;;22.00;53.70;;;;;;6205068;23;20442;-84
2022/02/13 03:31:56;;;;;;;6.10;2.80;;;22.00;53.80;;;;;;6206693;23;20387;-83
2022/02/13 03:34:22;;;;;;;5.60;3.37;;;22.00;54.40;;;;;;6207303;23;20406;-84
2022/02/13 03:36:54;;;;;;;4.93;3.10;;;22.00;53.90;;;;;;6209878;23;20363;-84
2022/02/13 03:39:23;;;;;;;4.77;3.20;;;22.00;53.80;;;;;;6207713;23;20147;-83
2022/02/13 03:41:52;;;;;;;7.80;3.03;;;22.00;53.80;;;;;;6205993;23;20442;-83
2022/02/13 03:44:20;;;;;;;3.80;2.90;;;22.00;53.80;;;;;;6210159;23;20359;-83
2022/02/13 03:46:46;;;;;;;5.47;3.00;;;22.00;53.80;;;;;;6207225;23;20407;-83
2022/02/13 03:49:12;;;;;;;6.30;3.53;;;22.00;53.90;;;;;;6208130;23;20389;-84
2022/02/13 03:51:58;;;;;;;4.67;2.90;;;22.00;53.90;;;;;;6207029;23;20162;-83
2022/02/13 03:54:31;;;;;;;7.53;2.87;;;22.00;53.90;;;;;;6208021;23;20414;-83
2022/02/13 03:56:59;;;;;;;3.97;3.00;;;22.00;53.90;;;;;;6206827;23;20381;-84
2022/02/13 03:59:31;;;;;;;3.47;2.33;;;22.00;54.00;;;;;;6206991;23;20367;-83
2022/02/13 04:02:05;;;;;;;3.93;2.60;;;22.00;54.00;;;;;;6206597;23;20386;-83
2022/02/13 04:04:31;;;;;;;5.80;3.10;;;22.00;54.00;;;;;;6206605;23;20375;-83
2022/02/13 04:07:03;;;;;;;5.63;3.10;;;22.00;54.00;;;;;;6206506;23;20410;-82
2022/02/13 04:09:36;;;;;;;7.30;2.93;;;22.00;53.90;;;;;;6206090;23;20238;-82
2022/02/13 04:12:17;;;;;;;5.73;3.10;;;22.00;54.00;;;;;;6206979;23;20363;-83
2022/02/13 04:14:53;;;;;;;7.33;2.87;;;22.00;54.00;;;;;;6205402;23;20377;-83
2022/02/13 04:17:23;;;;;;;4.30;2.80;;;22.00;54.00;;;;;;6205812;23;20803;-83
2022/02/13 04:19:54;;;;;;;3.97;2.33;;;22.00;54.00;;;;;;6205925;23;20387;-83
2022/02/13 04:22:23;;;;;;;5.03;3.10;;;22.00;54.00;;;;;;6206408;23;20392;-84
2022/02/13 04:24:52;;;;;;;3.23;2.40;;;22.10;54.00;;;;;;6205837;23;20418;-83
2022/02/13 04:27:18;;;;;;;5.57;2.43;;;22.00;54.00;;;;;;6206403;23;20376;-83
2022/02/13 04:29:44;;;;;;;3.60;2.47;;;22.00;54.00;;;;;;6206077;23;20379;-83
2022/02/13 04:32:10;;;;;;;4.40;2.80;;;22.00;53.90;;;;;;6207512;23;20367;-83
2022/02/13 04:34:36;;;;;;;3.17;2.43;;;22.00;53.90;;;;;;6206239;23;20414;-83
2022/02/13 04:37:04;;;;;;;4.33;2.60;;;22.00;53.90;;;;;;6199809;23;20379;-84
2022/02/13 04:39:30;;;;;;;5.77;2.80;;;22.00;53.90;;;;;;6200216;23;20179;-84
2022/02/13 04:41:55;;;;;;;3.57;2.30;;;22.00;54.40;;;;;;6202339;23;20820;-84
2022/02/13 04:44:21;;;;;;;5.93;2.70;;;22.00;53.90;;;;;;6200775;23;20152;-85
2022/02/13 04:50:09;;;;;;;3.37;2.70;;;22.00;53.80;;;;;;6202406;23;20633;-85
2022/02/13 04:52:36;;;;;;;3.23;2.20;;;22.00;53.90;;;;;;6201628;23;20379;-85
2022/02/13 04:55:03;;;;;;;2.77;2.10;;;22.00;53.90;;;;;;6200675;23;20470;-85
2022/02/13 04:57:29;;;;;;;3.40;2.20;;;22.00;53.90;;;;;;6203669;23;20371;-85
2022/02/13 04:59:55;;;;;;;3.17;2.20;;;22.00;53.90;;;;;;6200680;23;20781;-85
2022/02/13 05:02:23;;;;;;;3.20;2.30;;;22.00;53.90;;;;;;6201345;23;20457;-83
2022/02/13 05:04:49;;;;;;;3.13;2.33;;;22.00;54.00;;;;;;6203534;23;20681;-83
2022/02/13 05:07:15;;;;;;;3.50;2.40;;;22.00;54.00;;;;;;6204012;23;20367;-83
2022/02/13 05:09:44;;;;;;;3.50;2.40;;;22.00;54.00;;;;;;6204042;23;20179;-83
2022/02/13 05:12:11;;;;;;;4.03;2.60;;;22.00;54.00;;;;;;6203191;23;20410;-83
2022/02/13 05:14:40;;;;;;;3.40;2.50;;;22.00;54.00;;;;;;6202846;23;20379;-83
2022/02/13 05:17:08;;;;;;;4.87;2.40;;;22.00;54.10;;;;;;6202997;23;20386;-83
2022/02/13 05:19:34;;;;;;;4.70;2.60;;;22.00;54.10;;;;;;6204513;23;20375;-83
2022/02/13 05:22:00;;;;;;;5.37;2.93;;;22.00;54.10;;;;;;6203443;23;20375;-83
2022/02/13 05:24:28;;;;;;;3.57;2.60;;;22.00;54.00;;;;;;6203099;23;20156;-84
2022/02/13 05:26:54;;;;;;;4.20;2.30;;;21.90;54.00;;;;;;6203570;23;20139;-83
2022/02/13 05:29:20;;;;;;;5.90;3.07;;;22.00;54.00;;;;;;6203330;23;20376;-84
2022/02/13 05:31:46;;;;;;;3.93;2.90;;;21.90;53.90;;;;;;6202591;23;20162;-83
2022/02/13 05:34:15;;;;;;;4.57;2.70;;;21.90;53.90;;;;;;6202588;23;20175;-83
2022/02/13 05:36:44;;;;;;;3.93;2.20;;;21.90;53.90;;;;;;6202910;23;20167;-84
2022/02/13 05:39:10;;;;;;;3.53;2.03;;;21.90;53.90;;;;;;6204188;23;20451;-83
2022/02/13 05:41:36;;;;;;;3.10;2.53;;;21.90;53.90;;;;;;6203985;23;20402;-83
2022/02/13 05:44:02;;;;;;;3.73;2.20;;;21.90;53.80;;;;;;6204041;23;20366;-83
2022/02/13 05:46:29;;;;;;;2.40;2.20;;;21.90;53.90;;;;;;6202996;23;20419;-83
2022/02/13 05:48:56;;;;;;;4.10;2.17;;;21.90;53.90;;;;;;6202342;23;20414;-83
2022/02/13 05:51:23;;;;;;;2.47;2.03;;;21.90;53.90;;;;;;6202776;23;20395;-84
2022/02/13 05:53:50;;;;;;;3.77;2.03;;;21.90;53.80;;;;;;6201473;23;20841;-84
2022/02/13 05:56:16;;;;;;;5.07;2.40;;;22.00;53.90;;;;;;6203334;23;20370;-83
2022/02/13 05:58:42;;;;;;;4.93;2.50;;;21.90;53.80;;;;;;6202870;23;20838;-84
2022/02/13 06:01:09;;;;;;;2.10;1.77;;;21.90;53.80;;;;;;6200894;23;20869;-84
2022/02/13 06:03:35;;;;;;;3.13;2.03;;;21.90;53.80;;;;;;6202459;23;20391;-83
2022/02/13 06:06:01;;;;;;;4.97;3.13;;;21.90;53.80;;;;;;6202835;23;20443;-84
2022/02/13 06:08:34;;;;;;;3.00;2.40;;;22.00;53.90;;;;;;6202319;23;20383;-83
2022/02/13 06:11:02;;;;;;;4.20;2.23;;;22.00;53.90;;;;;;6202315;23;20406;-84
2022/02/13 06:13:28;;;;;;;6.20;2.80;;;22.00;54.00;;;;;;6202529;23;20434;-84
2022/02/13 06:16:06;;;;;;;3.10;2.10;;;22.00;54.00;;;;;;6207221;23;20415;-84
2022/02/13 06:18:42;;;;;;;3.07;2.37;;;22.00;53.90;;;;;;6208571;23;20431;-84
2022/02/13 06:21:11;;;;;;;3.67;2.60;;;22.00;54.00;;;;;;6184121;23;20387;-84
2022/02/13 06:23:39;;;;;;;2.50;2.20;;;22.00;54.00;;;;;;6232759;23;20398;-84
2022/02/13 06:26:14;;;;;;;2.83;2.10;;;22.00;54.00;;;;;;6208463;23;20415;-84
2022/02/13 06:28:47;;;;;;;3.37;2.00;;;22.00;54.00;;;;;;6199318;23;20375;-84
2022/02/13 06:31:27;;;;;;;3.80;2.20;;;22.00;54.00;;;;;;6200083;23;20431;-84
2022/02/13 06:33:55;;;;;;;2.87;2.27;;;22.00;54.00;;;;;;6209333;23;20383;-84
2022/02/13 06:36:31;;;;;;;2.60;2.00;;;22.00;53.90;;;;;;6208105;23;20386;-84
2022/02/13 06:39:02;;;;;;;4.77;2.40;;;22.00;53.90;;;;;;6210195;23;20357;-83
2022/02/13 06:41:28;;;;;;;3.27;2.13;;;22.00;53.90;;;;;;6202046;23;20844;-84
2022/02/13 06:43:54;;;;;;;2.27;2.07;;;22.00;53.90;;;;;;6203852;23;20375;-84
2022/02/13 06:46:19;;;;;;;3.47;2.30;;;22.00;53.90;;;;;;6203587;23;20167;-84
2022/02/13 06:48:45;;;;;;;2.70;1.80;;;22.00;53.80;;;;;;6202442;23;20152;-84
2022/02/13 06:51:14;;;;;;;3.87;2.67;;;22.00;53.80;;;;;;6201702;23;20282;-84
2022/02/13 06:53:45;;;;;;;2.20;1.63;;;22.00;53.80;;;;;;6203251;23;20371;-85
2022/02/13 06:56:17;;;;;;;3.43;2.20;;;22.00;53.80;;;;;;6203073;23;20372;-84
2022/02/13 06:58:46;;;;;;;4.40;2.10;;;22.00;53.80;;;;;;6204038;23;20364;-84
2022/02/13 07:01:14;;;;;;;3.07;1.80;;;22.00;53.80;;;;;;6201150;23;20467;-84
2022/02/13 07:03:42;;;;;;;2.90;1.90;;;22.00;53.80;;;;;;6201254;23;20398;-84
2022/02/13 07:12:26;;;;;;;3.30;2.47;;;22.00;53.80;;;;;;6203906;23;20346;-83
2022/02/13 07:14:55;;;;;;;2.70;1.80;;;22.00;53.80;;;;;;6207822;23;20375;-83
2022/02/13 07:17:25;;;;;;;3.43;2.10;;;22.00;53.90;;;;;;6182563;23;20383;-83
2022/02/13 07:20:02;;;;;;;2.73;1.90;;;22.00;53.90;;;;;;6206992;23;20433;-83
2022/02/13 07:22:32;;;;;;;2.90;2.13;;;22.00;53.90;;;;;;6207747;23;20438;-83
2022/02/13 07:25:06;;;;;;;2.47;1.70;;;22.00;53.90;;;;;;6207885;23;20406;-83
2022/02/13 07:30:47;;;;;;;2.27;1.77;;;22.00;53.90;;;;;;6207949;23;20379;-84
2022/02/13 07:33:18;;;;;;;2.83;1.73;;;22.00;53.90;;;;;;6205740;23;20394;-83
2022/02/13 07:35:46;;;;;;;2.37;1.50;;;22.00;53.90;;;;;;6206118;23;20442;-83
2022/02/13 07:38:14;;;;;;;3.43;1.90;;;22.10;53.90;;;;;;6206837;23;20390;-83
2022/02/13 07:40:46;;;;;;;3.87;2.80;;;22.00;53.80;;;;;;6208006;23;20411;-83
2022/02/13 07:46:38;;;;;;;3.93;2.77;;;22.00;53.60;;;;;;6205895;23;20426;-83
2022/02/13 07:49:22;;;;;;;3.37;2.23;;;22.00;53.60;;;;;;6203794;23;20422;-83
2022/02/13 07:52:01;;;;;;;2.57;2.13;;;22.00;53.70;;;;;;6204634;23;20375;-84
2022/02/13 07:57:55;;;;;;;3.03;1.90;;;22.00;53.70;;;;;;6174722;23;20493;-84
2022/02/13 08:00:30;;;;;;;3.33;2.13;;;22.00;53.80;;;;;;6174383;23;20469;-83
2022/02/13 08:03:17;;;;;;;2.40;2.00;;;22.00;54.40;;;;;;6127593;23;20463;-84
2022/02/13 08:05:50;;;;;;;3.60;1.90;;;22.00;53.80;;;;;;6174900;23;20475;-83
2022/02/13 08:08:22;;;;;;;2.50;1.90;;;22.00;53.90;;;;;;6174497;23;20407;-84
2022/02/13 08:11:14;;;;;;;2.90;2.10;;;22.00;53.80;;;;;;6126989;23;20380;-84
2022/02/13 08:13:47;;;;;;;3.90;2.20;;;22.10;53.80;;;;;;6171902;23;20380;-83
2022/02/13 08:16:15;;;;;;;2.47;2.10;;;22.10;53.90;;;;;;6171911;23;20448;-83
2022/02/13 08:18:48;;;;;;;2.93;1.80;;;22.10;53.90;;;;;;6172456;23;20388;-83
2022/02/13 08:21:20;;;;;;;3.00;2.00;;;22.10;53.80;;;;;;6147143;23;20443;-83
2022/02/13 08:27:16;;;;;;;2.03;1.77;;;22.10;53.80;;;;;;6205205;23;20487;-84
2022/02/13 08:29:55;;;;;;;2.60;2.13;;;22.00;53.70;;;;;;6204472;23;20375;-84
2022/02/13 08:32:43;;;;;;;2.43;2.03;;;22.10;53.80;;;;;;6209216;23;20428;-84
2022/02/13 08:35:23;;;;;;;4.37;2.37;;;22.00;53.80;;;;;;6207014;23;20852;-84
2022/02/13 08:37:56;;;;;;;3.53;2.27;;;22.00;53.80;;;;;;6205423;23;20402;-84
2022/02/13 08:40:28;;;;;;;3.07;2.27;;;22.10;53.80;;;;;;6205815;23;20371;-83
2022/02/13 08:43:11;;;;;;;1.90;1.70;;;22.10;53.80;;;;;;6196567;23;20453;-84
2022/02/13 08:45:52;;;;;;;;;;;;;;;;;;;;;
2022/02/13 08:48:47;;;;;;;2.80;2.07;;;22.10;53.80;;;;;;6206669;23;20364;-84
2022/02/13 08:51:28;;;;;;;2.10;1.90;;;22.10;53.80;;;;;;6203021;23;20474;-84
2022/02/13 08:54:06;;;;;;;2.50;2.30;;;22.10;53.80;;;;;;6204974;23;20378;-84
2022/02/13 08:56:58;;;;;;;5.90;2.10;;;22.10;53.80;;;;;;6201926;23;20375;-84
2022/02/13 09:03:47;;;;;;;4.30;3.20;;;22.10;53.80;;;;;;6206561;23;20382;-84
2022/02/13 09:20:44;;;;;;;9.17;6.07;;;22.00;53.90;;;;;;6055888;23;20398;-83
2022/02/13 09:23:18;;;;;;;8.57;6.53;;;22.00;53.90;;;;;;6040193;23;20435;-84
2022/02/13 09:26:16;;;;;;;10.37;6.50;;;22.00;53.90;;;;;;6031960;23;20439;-85
2022/02/13 09:35:32;;;;;;;9.83;5.90;;;22.10;53.70;;;;;;6006527;24;20352;-83
2022/02/13 09:38:01;;;;;;;8.43;6.27;;;22.10;53.70;;;;;;5978012;24;20385;-84
2022/02/13 09:44:09;;;;;;;8.60;5.57;;;22.10;53.70;;;;;;5918627;24;20387;-84
2022/02/13 09:46:38;;;;;;;6.23;4.90;;;22.10;53.70;;;;;;5918188;24;20442;-84
2022/02/13 09:49:07;;;;;;;7.23;5.40;;;22.10;53.70;;;;;;5930448;24;20395;-83
2022/02/13 09:51:36;;;;;;;9.70;5.63;;;22.10;53.70;;;;;;5946456;24;20383;-84
2022/02/13 09:54:05;;;;;;;5.83;5.07;;;22.10;53.70;;;;;;5921863;24;20402;-85
2022/02/13 09:57:59;;;;;;;9.50;5.27;;;22.10;53.70;;;;;;5999373;23;20380;-84
2022/02/13 09:59:59;;;;;;;7.27;5.90;;;22.10;53.70;;;;;;6024748;23;20380;-83
2022/02/13 10:02:46;;;;;;;6.83;5.00;;;22.10;53.70;;;;;;6027555;23;20384;-85
2022/02/13 10:05:31;;;;;;;8.63;5.93;;;22.10;53.70;;;;;;6028257;23;20460;-85
2022/02/13 10:08:32;;;;;;;7.90;5.47;;;22.10;53.70;;;;;;6054106;23;20798;-84
2022/02/13 10:11:20;;;;;;;7.10;5.40;;;22.10;53.70;;;;;;6089696;23;20392;-84
2022/02/13 10:13:50;;;;;;;6.03;4.77;;;22.10;53.70;;;;;;6088678;23;20374;-85
2022/02/13 10:16:45;;;;;;;6.00;5.13;;;22.10;53.70;;;;;;6110981;23;20385;-84
2022/02/13 10:19:23;;;;;;;5.57;4.23;;;22.10;53.70;;;;;;6114511;23;20392;-85
2022/02/13 10:21:57;;;;;;;7.53;5.20;;;22.10;53.70;;;;;;6203581;23;20714;-85
2022/02/13 10:24:29;;;;;;;9.00;5.30;;;22.10;53.70;;;;;;6199628;23;20386;-84
2022/02/13 10:27:10;;;;;;;8.17;4.73;;;22.10;53.60;;;;;;6199249;23;20414;-84
2022/02/13 10:29:55;;;;;;;7.50;4.90;;;22.10;53.70;;;;;;6200300;23;20704;-84
2022/02/13 10:32:42;;;;;;;6.10;5.23;;;22.10;53.60;;;;;;6201484;23;20439;-84
2022/02/13 10:38:02;;;;;;;9.87;4.50;;;22.10;53.70;;;;;;6201157;23;20340;-83
2022/02/13 10:40:43;;;;;;;7.20;5.23;;;22.10;53.70;;;;;;6199899;23;20386;-84
2022/02/13 10:43:24;;;;;;;6.47;4.27;;;22.10;54.20;;;;;;6198534;23;20443;-84
2022/02/13 10:46:16;;;;;;;6.63;5.10;;;22.10;53.70;;;;;;6203222;23;20438;-84
2022/02/13 10:48:45;;;;;;;5.63;4.70;;;22.10;53.70;;;;;;6202387;23;20375;-84
2022/02/13 10:51:15;;;;;;;7.13;4.50;;;22.10;53.60;;;;;;6204505;23;20371;-84
2022/02/13 10:53:54;;;;;;;5.20;4.27;;;22.10;53.60;;;;;;6202195;23;20383;-84
2022/02/13 10:56:29;;;;;;;6.43;3.97;;;22.10;53.60;;;;;;6202554;23;20394;-83
2022/02/13 10:59:24;;;;;;;5.50;4.43;;;22.10;53.60;;;;;;6201616;23;20405;-85
2022/02/13 11:02:03;;;;;;;4.83;3.60;;;22.10;53.70;;;;;;6201751;23;20443;-83
2022/02/13 11:04:37;;;;;;;7.33;5.33;;;22.10;53.60;;;;;;6199511;23;20702;-83
2022/02/13 11:07:04;;;;;;;4.80;3.90;;;22.10;53.60;;;;;;6175400;23;20379;-83
2022/02/13 11:09:35;;;;;;;6.67;3.60;;;22.10;53.50;;;;;;6200177;23;20387;-83
2022/02/13 11:12:09;;;;;;;5.60;4.33;;;22.10;53.50;;;;;;6198966;23;20383;-83
2022/02/13 11:28:49;;;;;;;4.93;3.60;;;22.00;53.50;;;;;;6139469;23;20400;-83
2022/02/13 11:37:48;;;;;;;5.17;3.60;;;22.00;53.60;;;;;;6198279;23;20363;-84
2022/02/13 11:40:55;;;;;;;4.63;3.87;;;22.00;53.60;;;;;;6174289;23;20453;-84
2022/02/13 11:43:58;;;;;;;5.67;3.63;;;22.00;53.70;;;;;;6115637;23;20385;-84
2022/02/13 11:46:35;;;;;;;5.47;3.50;;;22.00;53.70;;;;;;6115142;23;20416;-83
2022/02/13 11:49:11;;;;;;;4.20;3.40;;;22.00;53.70;;;;;;6117836;23;20380;-83
2022/02/13 11:51:58;;;;;;;4.17;3.07;;;22.00;53.70;;;;;;6119046;23;20460;-83
2022/02/13 11:54:47;;;;;;;4.00;2.80;;;22.10;53.70;;;;;;6118288;23;20413;-83
2022/02/13 11:57:33;;;;;;;5.10;3.20;;;22.00;53.60;;;;;;6116648;23;20381;-84
2022/02/13 11:59:58;;;;;;;5.17;4.20;;;22.10;53.70;;;;;;6114043;23;20383;-84
2022/02/13 12:02:37;;;;;;;7.80;3.57;;;22.10;53.70;;;;;;6114896;23;20389;-84
2022/02/13 12:05:17;;;;;;;3.97;3.43;;;22.00;53.60;;;;;;6140590;23;20413;-84
2022/02/13 12:07:57;;;;;;;4.67;3.50;;;22.00;53.60;;;;;;6118448;23;20377;-83
2022/02/13 12:10:45;;;;;;;4.40;3.30;;;22.10;53.60;;;;;;6118035;23;20392;-83
2022/02/13 12:13:17;;;;;;;5.63;3.70;;;22.10;53.60;;;;;;6117504;23;20382;-84
2022/02/13 12:16:15;;;;;;;6.20;3.43;;;22.10;53.60;;;;;;6117592;23;20417;-84
2022/02/13 12:18:41;;;;;;;6.10;3.97;;;22.10;53.60;;;;;;6104710;23;20706;-84
2022/02/13 12:21:17;;;;;;;5.53;3.63;;;22.00;53.50;;;;;;6163926;23;20824;-84
2022/02/13 12:23:44;;;;;;;5.03;3.20;;;22.10;53.60;;;;;;6179924;23;20390;-83
2022/02/13 12:26:13;;;;;;;4.13;3.17;;;22.10;53.50;;;;;;6203908;23;20430;-83
2022/02/13 12:29:14;;;;;;;6.53;3.83;;;22.10;53.50;;;;;;6204936;23;20467;-82
2022/02/13 12:31:46;;;;;;;4.27;2.97;;;22.10;53.50;;;;;;6146085;23;20390;-83
2022/02/13 12:34:19;;;;;;;6.73;4.10;;;22.10;53.50;;;;;;6147169;23;20387;-83
2022/02/13 12:37:02;;;;;;;4.13;2.90;;;22.10;53.50;;;;;;6147165;23;20451;-83
2022/02/13 12:39:36;;;;;;;3.70;2.83;;;22.10;53.50;;;;;;6147076;23;20395;-84
2022/02/13 12:42:03;;;;;;;6.90;3.67;;;22.10;53.50;;;;;;6147038;23;20376;-83
2022/02/13 12:45:05;;;;;;;4.67;3.07;;;22.10;53.50;;;;;;6172066;23;20368;-83
2022/02/13 12:47:39;;;;;;;3.73;2.50;;;22.10;53.50;;;;;;6146867;23;20372;-83
2022/02/13 13:00:53;;;;;;;4.87;2.83;;;22.00;53.50;;;;;;6054877;23;20355;-84
2022/02/13 13:03:21;;;;;;;3.40;2.70;;;22.00;53.50;;;;;;6031829;23;20379;-84
2022/02/13 13:06:06;;;;;;;4.10;2.80;;;22.00;53.50;;;;;;6034620;23;20430;-84
2022/02/13 13:09:01;;;;;;;3.73;3.23;;;22.00;53.30;;;;;;6082352;23;20445;-84
2022/02/13 13:14:58;;;;;;;5.40;3.53;;;22.00;52.60;;;;;;6053322;23;20400;-83
2022/02/13 13:17:38;;;;;;;4.07;3.00;;;21.90;52.20;;;;;;6025351;23;20384;-85
2022/02/13 13:20:25;;;;;;;3.70;2.80;;;21.90;52.10;;;;;;6033619;23;20471;-83
2022/02/13 13:23:52;;;;;;;4.10;3.23;;;21.90;52.20;;;;;;6037980;23;20488;-83
2022/02/13 13:26:25;;;;;;;4.00;3.00;;;21.90;52.40;;;;;;6033284;23;20430;-84
2022/02/13 13:29:00;;;;;;;4.27;3.00;;;21.90;52.70;;;;;;6033267;23;20383;-84
2022/02/13 13:31:30;;;;;;;3.83;2.70;;;21.90;52.80;;;;;;6054926;23;20373;-84
2022/02/13 13:34:04;;;;;;;4.37;2.87;;;21.90;52.90;;;;;;6052224;23;20383;-84
2022/02/13 13:36:31;;;;;;;4.80;2.87;;;21.90;52.80;;;;;;6028037;23;20470;-83
2022/02/13 13:39:01;;;;;;;3.37;2.80;;;21.90;52.90;;;;;;6052032;23;20384;-84
2022/02/13 13:41:33;;;;;;;3.20;2.83;;;21.90;52.90;;;;;;6053288;23;20372;-84
2022/02/13 13:44:35;;;;;;;3.37;2.63;;;21.90;52.90;;;;;;6065242;23;20404;-84
2022/02/13 13:47:04;;;;;;;4.17;2.67;;;21.90;52.90;;;;;;6092565;23;20385;-83
2022/02/13 13:49:46;;;;;;;;;;;;;;;;;;;;;
2022/02/13 13:52:19;;;;;;;3.23;2.53;;;21.90;52.90;;;;;;6119142;23;20366;-83
2022/02/13 13:54:54;;;;;;;4.90;2.80;;;21.90;52.90;;;;;;6115191;23;20833;-87
2022/02/13 13:57:20;;;;;;;2.53;2.30;;;21.90;53.00;;;;;;6109313;23;20449;-84
2022/02/13 13:59:47;;;;;;;4.67;2.90;;;21.90;52.90;;;;;;6137195;23;20396;-83
2022/02/13 14:02:21;;;;;;;2.77;2.57;;;21.90;53.50;;;;;;6197654;23;20559;-84
2022/02/13 14:04:57;;;;;;;4.87;3.17;;;22.00;53.00;;;;;;6202558;23;20898;-82
2022/02/13 14:07:26;;;;;;;3.87;2.53;;;21.90;52.90;;;;;;6202646;23;20379;-82
2022/02/13 14:09:52;;;;;;;2.67;2.43;;;21.90;52.90;;;;;;6201982;23;20379;-83
2022/02/13 14:12:20;;;;;;;2.93;2.37;;;21.90;52.90;;;;;;6203459;23;20394;-82
2022/02/13 14:15:00;;;;;;;2.50;2.30;;;21.90;52.90;;;;;;6203225;23;20386;-82
2022/02/13 14:17:29;;;;;;;3.90;2.60;;;21.90;52.90;;;;;;6174970;23;20434;-83
2022/02/13 14:19:58;;;;;;;3.40;2.37;;;22.00;53.00;;;;;;6197886;23;20387;-83
2022/02/13 14:22:29;;;;;;;3.97;2.57;;;22.00;53.00;;;;;;6197949;23;20383;-84
2022/02/13 14:25:04;;;;;;;2.50;2.30;;;21.90;53.00;;;;;;6197959;23;20449;-83
2022/02/13 14:27:33;;;;;;;4.90;3.00;;;22.00;53.10;;;;;;6197736;23;20952;-83
2022/02/13 14:30:03;;;;;;;3.37;2.57;;;22.00;53.10;;;;;;6197851;23;20462;-83
2022/02/13 14:32:41;;;;;;;3.13;2.23;;;22.00;53.10;;;;;;6197240;23;20708;-83
2022/02/13 14:35:13;;;;;;;4.30;2.27;;;22.00;53.10;;;;;;6197274;23;20379;-83
2022/02/13 14:37:39;;;;;;;3.67;2.83;;;21.90;53.10;;;;;;6195397;23;20403;-84
2022/02/13 14:40:18;;;;;;;2.77;2.07;;;21.90;53.10;;;;;;6197332;23;20387;-83
2022/02/13 14:42:51;;;;;;;2.67;2.37;;;21.90;53.10;;;;;;6210475;23;20356;-83
2022/02/13 14:45:34;;;;;;;3.00;2.40;;;21.90;53.10;;;;;;6210748;23;20407;-83
2022/02/13 14:48:48;;;;;;;;;;;;;;;;;;;;;
2022/02/13 14:51:31;;;;;;;3.50;2.60;;;21.90;53.10;;;;;;6207025;23;20375;-82
2022/02/13 14:57:14;;;;;;;3.20;2.70;;;21.90;53.10;;;;;;6199038;23;20394;-83
2022/02/13 14:59:41;;;;;;;3.03;2.53;;;21.90;53.20;;;;;;6172989;23;20455;-83
2022/02/13 15:09:07;;;;;;;3.90;2.60;;;21.90;53.20;;;;;;6167310;22;20415;-83
2022/02/13 15:11:37;;;;;;;2.57;2.30;;;21.90;53.30;;;;;;6120011;23;20507;-85
2022/02/13 15:16:56;;;;;;;2.40;2.10;;;21.90;53.30;;;;;;6153887;23;20902;-84